createdAt,value
2019-01-29T00:00:47.495Z,99969.78
2019-01-29T00:03:16.966Z,99973.48
2019-01-29T00:05:46.319Z,99974.64
2019-01-29T00:08:15.602Z,99991.45
2019-01-29T00:10:44.913Z,99982.92
2019-01-29T00:13:14.203Z,99981.88
2019-01-29T00:15:43.515Z,99987.08
2019-01-29T00:18:12.796Z,99977.13
2019-01-29T00:20:42.102Z,99985.78
2019-01-29T00:23:11.395Z,99980.39
2019-01-29T00:25:40.754Z,99978.78
2019-01-29T00:28:10.072Z,99979.33
2019-01-29T00:30:39.399Z,99977.84
2019-01-29T00:33:08.687Z,99976.05
2019-01-29T00:35:37.991Z,99976.59
2019-01-29T00:38:07.296Z,99972.08
2019-01-29T00:40:36.624Z,99971.13
2019-01-29T00:43:06.010Z,99980.55
2019-01-29T00:45:35.305Z,99978.57
2019-01-29T00:48:05.063Z,99983.53
2019-01-29T00:50:34.352Z,99984.86
2019-01-29T00:53:03.733Z,99980.05
2019-01-29T00:55:33.043Z,99991.38
2019-01-29T00:58:02.481Z,99990.92
2019-01-29T01:00:32.274Z,99992.27
2019-01-29T01:03:02.310Z,99988.48
2019-01-29T01:05:31.791Z,99992.59
2019-01-29T01:08:01.097Z,99994.30
2019-01-29T01:10:30.462Z,99997.72
2019-01-29T01:12:59.793Z,99998.63
2019-01-29T01:15:29.433Z,99999.67
2019-01-29T01:17:58.768Z,99999.04
2019-01-29T01:20:28.126Z,100006.74
2019-01-29T01:22:57.504Z,100004.86
2019-01-29T01:25:26.817Z,100012.66
2019-01-29T01:27:56.133Z,100017.79
2019-01-29T01:30:25.576Z,100021.66
2019-01-29T01:32:54.884Z,100023.24
2019-01-29T01:35:24.260Z,100027.89
2019-01-29T01:37:53.659Z,100031.23
2019-01-29T01:40:23.889Z,100031.59
2019-01-29T01:42:53.490Z,100031.72
2019-01-29T01:45:23.050Z,100038.47
2019-01-29T01:47:52.711Z,100042.82
2019-01-29T01:50:21.995Z,100042.22
2019-01-29T01:52:58.958Z,100042.49
2019-01-29T01:55:22.333Z,100038.75
2019-01-29T01:57:51.990Z,100035.83
2019-01-29T02:00:22.622Z,100042.88
2019-01-29T02:02:52.157Z,100041.53
2019-01-29T02:05:21.458Z,100037.70
2019-01-29T02:07:50.922Z,100041.72
2019-01-29T02:10:23.367Z,100043.11
2019-01-29T02:12:53.038Z,100047.98
2019-01-29T02:15:23.354Z,100046.00
2019-01-29T02:17:52.788Z,100044.78
2019-01-29T02:20:22.263Z,100054.52
2019-01-29T02:22:51.857Z,100047.70
2019-01-29T02:25:21.296Z,100052.94
2019-01-29T02:27:50.663Z,100056.82
2019-01-29T02:30:22.530Z,100055.64
2019-01-29T02:32:51.935Z,100049.25
2019-01-29T02:35:21.230Z,100050.86
2019-01-29T02:37:50.624Z,100051.23
2019-01-29T02:40:22.905Z,100058.67
2019-01-29T02:42:52.474Z,100062.55
2019-01-29T02:45:23.350Z,100058.99
2019-01-29T02:47:52.749Z,100068.31
2019-01-29T02:50:22.267Z,100063.99
2019-01-29T02:52:51.635Z,100070.07
2019-01-29T02:55:21.017Z,100064.27
2019-01-29T02:57:50.319Z,100070.22
2019-01-29T03:00:22.387Z,100073.32
2019-01-29T03:02:51.967Z,100065.42
2019-01-29T03:05:21.991Z,100068.13
2019-01-29T03:07:52.545Z,100069.49
2019-01-29T03:10:24.490Z,100070.16
2019-01-29T03:12:53.796Z,100072.32
2019-01-29T03:15:29.000Z,100073.69
2019-01-29T03:17:59.169Z,100077.20
2019-01-29T03:20:28.716Z,100086.70
2019-01-29T03:22:58.096Z,100080.09
2019-01-29T03:25:27.536Z,100080.41
2019-01-29T03:27:56.832Z,100084.97
2019-01-29T03:30:26.226Z,100078.88
2019-01-29T03:32:55.642Z,100081.22
2019-01-29T03:35:24.989Z,100082.58
2019-01-29T03:37:54.371Z,100091.37
2019-01-29T03:40:27.908Z,100088.06
2019-01-29T03:42:57.293Z,100082.96
2019-01-29T03:45:26.730Z,100082.30
2019-01-29T03:47:56.121Z,100084.87
2019-01-29T03:50:25.963Z,100086.84
2019-01-29T03:52:55.271Z,100089.16
2019-01-29T03:55:24.630Z,100092.30
2019-01-29T03:57:53.954Z,100082.47
2019-01-29T04:00:26.548Z,100087.48
2019-01-29T04:02:56.337Z,100085.39
2019-01-29T04:05:26.024Z,100086.52
2019-01-29T04:07:55.591Z,100086.45
2019-01-29T04:10:25.224Z,100082.16
2019-01-29T04:12:54.572Z,100083.44
2019-01-29T04:15:24.444Z,100087.79
2019-01-29T04:17:56.320Z,100093.05
2019-01-29T04:20:26.339Z,100101.59
2019-01-29T04:22:55.702Z,100097.18
2019-01-29T04:25:25.452Z,100092.35
2019-01-29T04:27:54.752Z,100090.64
2019-01-29T04:30:24.613Z,100091.50
2019-01-29T04:32:53.906Z,100092.98
2019-01-29T04:35:23.291Z,100098.43
2019-01-29T04:37:52.782Z,100094.51
2019-01-29T04:40:22.153Z,100090.31
2019-01-29T04:42:51.884Z,100094.87
2019-01-29T04:45:21.290Z,100092.44
2019-01-29T04:47:50.743Z,100097.52
2019-01-29T04:50:21.321Z,100089.41
2019-01-29T04:52:51.282Z,100091.41
2019-01-29T04:55:21.245Z,100089.08
2019-01-29T04:57:51.213Z,100087.55
2019-01-29T05:00:23.120Z,100086.34
2019-01-29T05:02:52.942Z,100082.78
2019-01-29T05:05:22.778Z,100091.08
2019-01-29T05:07:52.360Z,100080.47
2019-01-29T05:10:22.785Z,100082.33
2019-01-29T05:12:52.462Z,100085.21
2019-01-29T05:15:22.193Z,100082.36
2019-01-29T05:17:51.513Z,100086.39
2019-01-29T05:20:22.288Z,100088.73
2019-01-29T05:22:51.733Z,100083.92
2019-01-29T05:25:21.386Z,100085.91
2019-01-29T05:27:50.768Z,100076.57
2019-01-29T05:30:22.930Z,100081.11
2019-01-29T05:32:52.615Z,100079.29
2019-01-29T05:35:22.265Z,100078.07
2019-01-29T05:37:51.766Z,100083.27
2019-01-29T05:40:23.192Z,100078.80
2019-01-29T05:42:52.960Z,100079.25
2019-01-29T05:45:23.209Z,100084.14
2019-01-29T05:47:52.534Z,100081.27
2019-01-29T05:50:21.895Z,100084.73
2019-01-29T05:52:51.221Z,100085.91
2019-01-29T05:55:20.581Z,100084.20
2019-01-29T05:57:50.043Z,100091.09
2019-01-29T06:00:23.195Z,100084.13
2019-01-29T06:02:52.549Z,100083.92
2019-01-29T06:05:22.400Z,100075.95
2019-01-29T06:07:51.708Z,100080.95
2019-01-29T06:10:21.009Z,100076.27
2019-01-29T06:12:50.308Z,100075.88
2019-01-29T06:15:22.255Z,100069.18
2019-01-29T06:17:51.608Z,100072.52
2019-01-29T06:20:23.947Z,100069.19
2019-01-29T06:22:53.300Z,100067.75
2019-01-29T06:25:22.694Z,100068.79
2019-01-29T06:27:52.644Z,100068.83
2019-01-29T06:30:24.778Z,100072.34
2019-01-29T06:32:54.548Z,100068.55
2019-01-29T06:35:24.181Z,100069.00
2019-01-29T06:37:53.510Z,100072.99
2019-01-29T06:40:29.752Z,100074.17
2019-01-29T06:42:59.053Z,100075.12
2019-01-29T06:45:28.876Z,100076.88
2019-01-29T06:47:58.161Z,100079.80
2019-01-29T06:50:28.153Z,100082.66
2019-01-29T06:52:57.608Z,100083.23
2019-01-29T06:55:27.373Z,100079.12
2019-01-29T06:57:56.758Z,100081.56
2019-01-29T07:00:30.720Z,100084.50
2019-01-29T07:03:01.250Z,100087.73
2019-01-29T07:05:31.205Z,100087.91
2019-01-29T07:08:00.502Z,100091.53
2019-01-29T07:10:30.367Z,100087.52
2019-01-29T07:12:59.767Z,100091.59
2019-01-29T07:15:48.105Z,100096.48
2019-01-29T07:18:28.560Z,100095.76
2019-01-29T07:20:58.172Z,100099.95
2019-01-29T07:23:27.499Z,100096.25
2019-01-29T07:25:56.868Z,100102.30
2019-01-29T07:28:26.259Z,100105.23
2019-01-29T07:30:55.656Z,100099.26
2019-01-29T07:33:24.989Z,100098.41
2019-01-29T07:35:54.288Z,100097.14
2019-01-29T07:38:23.618Z,100100.03
2019-01-29T07:40:52.965Z,100102.51
2019-01-29T07:43:22.297Z,100102.05
2019-01-29T07:45:51.589Z,100099.83
2019-01-29T07:48:20.918Z,100101.19
2019-01-29T07:50:50.303Z,100097.00
2019-01-29T07:53:19.704Z,100103.11
2019-01-29T07:55:49.013Z,100106.34
2019-01-29T07:58:18.330Z,100101.30
2019-01-29T08:00:47.688Z,100103.88
2019-01-29T08:03:17.035Z,100098.55
2019-01-29T08:05:46.330Z,100095.61
2019-01-29T08:08:15.997Z,100099.53
2019-01-29T08:10:45.565Z,100090.64
2019-01-29T08:13:15.023Z,100108.05
2019-01-29T08:15:44.348Z,100103.34
2019-01-29T08:18:13.641Z,100103.06
2019-01-29T08:20:43.104Z,100103.28
2019-01-29T08:23:12.428Z,100101.61
2019-01-29T08:25:47.594Z,100105.55
2019-01-29T08:28:12.761Z,100108.33
2019-01-29T08:30:42.117Z,100108.45
2019-01-29T08:33:11.479Z,100111.22
2019-01-29T08:35:41.629Z,100110.86
2019-01-29T08:38:11.398Z,100103.30
2019-01-29T08:40:40.735Z,100107.11
2019-01-29T08:43:10.180Z,100109.62
2019-01-29T08:45:39.575Z,100103.28
2019-01-29T08:48:08.862Z,100100.11
2019-01-29T08:50:38.289Z,100105.34
2019-01-29T08:53:07.629Z,100100.58
2019-01-29T08:55:37.085Z,100104.39
2019-01-29T08:58:06.469Z,100102.18
2019-01-29T09:00:35.885Z,100098.67
2019-01-29T09:03:05.721Z,100098.14
2019-01-29T09:05:35.057Z,100096.17
2019-01-29T09:08:04.697Z,100093.12
2019-01-29T09:10:34.109Z,100093.03
2019-01-29T09:13:03.407Z,100083.47
2019-01-29T09:15:32.858Z,100082.60
2019-01-29T09:18:02.197Z,100075.91
2019-01-29T09:20:31.508Z,100077.73
2019-01-29T09:23:00.822Z,100073.45
2019-01-29T09:25:30.121Z,100074.94
2019-01-29T09:27:59.422Z,100070.66
2019-01-29T09:30:28.714Z,100072.57
2019-01-29T09:32:58.018Z,100065.58
2019-01-29T09:35:27.366Z,100058.77
2019-01-29T09:37:56.692Z,100058.77
2019-01-29T09:40:26.051Z,100055.22
2019-01-29T09:42:55.431Z,100049.95
2019-01-29T09:45:24.788Z,100048.70
2019-01-29T09:47:54.179Z,100049.10
2019-01-29T09:50:24.582Z,100046.14
2019-01-29T09:52:54.274Z,100040.34
2019-01-29T09:55:29.475Z,100043.53
2019-01-29T09:57:55.987Z,100036.41
2019-01-29T10:00:34.245Z,100035.15
2019-01-29T10:03:04.260Z,100027.98
2019-01-29T10:05:34.210Z,100031.25
2019-01-29T10:08:04.537Z,100028.67
2019-01-29T10:10:33.851Z,100026.27
2019-01-29T10:13:03.191Z,100025.89
2019-01-29T10:15:35.010Z,100026.70
2019-01-29T10:18:05.171Z,100021.02
2019-01-29T10:20:34.872Z,100018.95
2019-01-29T10:23:04.778Z,100002.13
2019-01-29T10:25:37.767Z,99994.57
2019-01-29T10:28:05.194Z,99993.20
2019-01-29T10:30:34.478Z,99992.06
2019-01-29T10:33:04.218Z,99988.58
2019-01-29T10:35:33.978Z,99988.58
2019-01-29T10:38:03.228Z,99979.56
2019-01-29T10:40:32.606Z,99980.88
2019-01-29T10:43:02.182Z,99970.66
2019-01-29T10:45:32.870Z,99958.30
2019-01-29T10:48:02.177Z,99960.58
2019-01-29T10:50:32.414Z,99967.33
2019-01-29T10:53:02.113Z,99951.16
2019-01-29T10:55:31.401Z,99951.34
2019-01-29T10:58:00.726Z,99948.31
2019-01-29T11:00:39.027Z,99947.11
2019-01-29T11:03:09.680Z,99934.53
2019-01-29T11:05:39.052Z,99937.66
2019-01-29T11:08:08.389Z,99944.52
2019-01-29T11:10:37.679Z,99944.52
2019-01-29T11:13:07.403Z,99934.23
2019-01-29T11:15:41.808Z,99924.05
2019-01-29T11:18:13.132Z,99919.68
2019-01-29T11:20:42.759Z,99919.68
2019-01-29T11:23:12.059Z,99913.28
2019-01-29T11:25:41.686Z,99906.29
2019-01-29T11:28:11.125Z,99906.29
2019-01-29T11:30:41.343Z,99898.95
2019-01-29T11:33:10.715Z,99892.02
2019-01-29T11:35:40.643Z,99882.92
2019-01-29T11:38:10.705Z,99893.55
2019-01-29T11:40:40.123Z,99885.11
2019-01-29T11:43:09.844Z,99883.81
2019-01-29T11:45:42.220Z,99891.36
2019-01-29T11:48:11.547Z,99876.84
2019-01-29T11:50:40.828Z,99871.78
2019-01-29T11:53:10.206Z,99884.22
2019-01-29T11:55:39.720Z,99889.94
2019-01-29T11:58:09.059Z,99889.94
2019-01-29T12:00:41.144Z,99866.28
2019-01-29T12:03:10.465Z,99866.45
2019-01-29T12:05:39.771Z,99875.30
2019-01-29T12:08:09.394Z,99863.45
2019-01-29T12:10:39.068Z,99856.97
2019-01-29T12:13:08.427Z,99859.84
2019-01-29T12:15:37.881Z,99851.38
2019-01-29T12:18:07.588Z,99838.25
2019-01-29T12:20:37.068Z,99847.41
2019-01-29T12:23:06.613Z,99840.23
2019-01-29T12:25:36.180Z,99828.03
2019-01-29T12:28:06.018Z,99828.03
2019-01-29T12:30:35.538Z,99822.36
2019-01-29T12:33:06.978Z,99814.41
2019-01-29T12:35:36.341Z,99814.41
2019-01-29T12:38:05.842Z,99810.57
2019-01-29T12:40:37.039Z,99804.52
2019-01-29T12:43:06.665Z,99804.52
2019-01-29T12:45:36.076Z,99806.92
2019-01-29T12:48:06.034Z,99803.59
2019-01-29T12:50:36.125Z,99791.80
2019-01-29T12:53:07.665Z,99790.39
2019-01-29T12:55:37.614Z,99797.59
2019-01-29T12:58:07.521Z,99783.05
2019-01-29T13:00:38.602Z,99785.10
2019-01-29T13:03:08.312Z,99783.48
2019-01-29T13:05:37.614Z,99783.17
2019-01-29T13:08:07.523Z,99781.75
2019-01-29T13:10:36.896Z,99773.63
2019-01-29T13:13:06.729Z,99774.95
2019-01-29T13:15:36.436Z,99771.95
2019-01-29T13:18:05.988Z,99771.49
2019-01-29T13:20:35.527Z,99768.67
2019-01-29T13:23:05.442Z,99768.14
2019-01-29T13:25:34.914Z,99768.58
2019-01-29T13:28:05.440Z,99767.76
2019-01-29T13:30:36.985Z,99761.26
2019-01-29T13:33:09.210Z,99757.37
2019-01-29T13:35:39.926Z,99748.38
2019-01-29T13:38:10.653Z,99748.75
2019-01-29T13:40:40.306Z,99734.96
2019-01-29T13:43:09.727Z,99734.96
2019-01-29T13:45:39.965Z,99732.51
2019-01-29T13:48:09.881Z,99732.71
2019-01-29T13:50:45.373Z,99734.36
2019-01-29T13:53:14.658Z,99736.03
2019-01-29T13:55:43.946Z,99736.03
2019-01-29T13:58:13.506Z,99730.23
2019-01-29T14:00:42.941Z,99724.14
2019-01-29T14:03:13.269Z,99719.69
2019-01-29T14:05:42.952Z,99704.72
2019-01-29T14:08:12.293Z,99704.81
2019-01-29T14:10:41.576Z,99704.81
2019-01-29T14:13:10.876Z,99702.19
2019-01-29T14:15:41.955Z,99698.94
2019-01-29T14:18:12.097Z,99700.14
2019-01-29T14:20:41.545Z,99688.94
2019-01-29T14:23:10.904Z,99691.41
2019-01-29T14:25:40.196Z,99690.26
2019-01-29T14:28:09.616Z,99695.28
2019-01-29T14:30:39.753Z,99692.39
2019-01-29T14:33:09.078Z,99695.52
2019-01-29T14:35:38.431Z,99699.35
2019-01-29T14:38:16.491Z,99690.45
2019-01-29T14:40:45.860Z,99684.59
2019-01-29T14:43:20.932Z,99687.72
2019-01-29T14:45:50.245Z,99675.67
2019-01-29T14:48:19.566Z,99676.52
2019-01-29T14:50:48.952Z,99668.41
2019-01-29T14:53:18.368Z,99664.36
2019-01-29T14:55:47.627Z,99665.91
2019-01-29T14:58:17.010Z,99659.58
2019-01-29T15:00:47.020Z,99657.00
2019-01-29T15:03:16.441Z,99653.54
2019-01-29T15:05:45.710Z,99649.36
2019-01-29T15:08:15.204Z,99641.72
2019-01-29T15:10:44.949Z,99643.75
2019-01-29T15:13:14.239Z,99640.30
2019-01-29T15:15:45.216Z,99642.09
2019-01-29T15:18:16.303Z,99632.78
2019-01-29T15:20:45.727Z,99632.94
2019-01-29T15:23:15.160Z,99623.48
2019-01-29T15:25:44.636Z,99620.53
2019-01-29T15:28:13.942Z,99620.31
2019-01-29T15:30:43.205Z,99616.01
2019-01-29T15:33:12.684Z,99613.87
2019-01-29T15:35:41.970Z,99613.75
2019-01-29T15:38:11.284Z,99610.22
2019-01-29T15:40:40.629Z,99607.16
2019-01-29T15:43:10.359Z,99597.97
2019-01-29T15:45:40.261Z,99604.25
2019-01-29T15:48:09.706Z,99601.97
2019-01-29T15:50:39.351Z,99593.66
2019-01-29T15:53:08.893Z,99584.94
2019-01-29T15:55:38.233Z,99588.13
2019-01-29T15:58:08.712Z,99581.56
2019-01-29T16:00:39.650Z,99580.41
2019-01-29T16:03:09.076Z,99578.16
2019-01-29T16:05:42.384Z,99578.19
2019-01-29T16:08:15.369Z,99570.56
2019-01-29T16:10:46.506Z,99573.66
2019-01-29T16:13:15.799Z,99568.16
2019-01-29T16:15:45.423Z,99560.57
2019-01-29T16:18:14.830Z,99565.56
2019-01-29T16:20:44.199Z,99557.70
2019-01-29T16:23:13.527Z,99558.55
2019-01-29T16:25:42.983Z,99554.48
2019-01-29T16:28:12.364Z,99544.00
2019-01-29T16:30:41.729Z,99542.94
2019-01-29T16:33:11.106Z,99534.27
2019-01-29T16:35:44.330Z,99536.55
2019-01-29T16:38:14.065Z,99536.73
2019-01-29T16:40:45.492Z,99539.09
2019-01-29T16:43:15.107Z,99535.98
2019-01-29T16:45:44.479Z,99527.96
2019-01-29T16:48:13.827Z,99520.82
2019-01-29T16:50:43.130Z,99520.81
2019-01-29T16:53:12.482Z,99513.91
2019-01-29T16:55:41.874Z,99509.59
2019-01-29T16:58:11.224Z,99510.84
2019-01-29T17:00:42.675Z,99503.51
2019-01-29T17:03:11.984Z,99504.11
2019-01-29T17:05:41.368Z,99498.78
2019-01-29T17:08:12.040Z,99500.08
2019-01-29T17:10:41.623Z,99493.80
2019-01-29T17:13:10.927Z,99484.40
2019-01-29T17:15:40.291Z,99488.03
2019-01-29T17:18:12.124Z,99478.92
2019-01-29T17:20:44.340Z,99479.31
2019-01-29T17:23:13.808Z,99468.95
2019-01-29T17:25:43.525Z,99467.55
2019-01-29T17:28:12.811Z,99469.66
2019-01-29T17:30:46.256Z,99462.91
2019-01-29T17:33:17.957Z,99463.97
2019-01-29T17:35:47.811Z,99456.02
2019-01-29T17:38:17.191Z,99456.35
2019-01-29T17:40:47.024Z,99446.60
2019-01-29T17:43:16.681Z,99448.27
2019-01-29T17:45:49.142Z,99440.88
2019-01-29T17:48:18.729Z,99436.98
2019-01-29T17:50:49.142Z,99440.20
2019-01-29T17:53:18.423Z,99436.96
2019-01-29T17:55:48.102Z,99441.64
2019-01-29T17:58:17.393Z,99432.90
2019-01-29T18:00:48.605Z,99428.27
2019-01-29T18:03:18.043Z,99427.92
2019-01-29T18:05:47.409Z,99416.16
2019-01-29T18:08:16.726Z,99414.95
2019-01-29T18:10:46.451Z,99411.99
2019-01-29T18:13:15.774Z,99409.45
2019-01-29T18:15:45.081Z,99406.37
2019-01-29T18:18:14.387Z,99400.60
2019-01-29T18:20:43.884Z,99394.02
2019-01-29T18:23:13.175Z,99386.18
2019-01-29T18:25:42.498Z,99389.74
2019-01-29T18:28:11.783Z,99380.95
2019-01-29T18:30:41.430Z,99377.05
2019-01-29T18:33:10.710Z,99375.94
2019-01-29T18:35:40.027Z,99370.12
2019-01-29T18:38:09.444Z,99370.91
2019-01-29T18:40:41.917Z,99364.39
2019-01-29T18:43:11.247Z,99359.00
2019-01-29T18:45:40.614Z,99359.62
2019-01-29T18:48:09.927Z,99358.66
2019-01-29T18:50:39.233Z,99346.11
2019-01-29T18:53:08.613Z,99342.75
2019-01-29T18:55:37.997Z,99339.09
2019-01-29T18:58:11.925Z,99337.57
2019-01-29T19:00:38.701Z,99336.93
2019-01-29T19:03:08.091Z,99326.62
2019-01-29T19:05:37.491Z,99330.19
2019-01-29T19:08:06.879Z,99325.57
2019-01-29T19:10:36.606Z,99320.55
2019-01-29T19:13:07.306Z,99319.40
2019-01-29T19:15:36.680Z,99316.44
2019-01-29T19:18:06.454Z,99315.23
2019-01-29T19:20:35.832Z,99321.77
2019-01-29T19:23:05.867Z,99310.36
2019-01-29T19:25:35.177Z,99308.35
2019-01-29T19:28:04.950Z,99300.17
2019-01-29T19:30:34.625Z,99304.55
2019-01-29T19:33:04.079Z,99301.13
2019-01-29T19:35:33.364Z,99300.37
2019-01-29T19:38:02.841Z,99295.86
2019-01-29T19:40:32.221Z,99293.23
2019-01-29T19:43:01.537Z,99299.11
2019-01-29T19:45:35.503Z,99286.33
2019-01-29T19:48:06.519Z,99289.23
2019-01-29T19:50:36.602Z,99276.89
2019-01-29T19:53:05.901Z,99280.34
2019-01-29T19:55:35.681Z,99276.13
2019-01-29T19:58:09.123Z,99275.83
2019-01-29T20:00:41.481Z,99266.74
2019-01-29T20:03:11.178Z,99264.08
2019-01-29T20:05:40.496Z,99259.11
2019-01-29T20:08:10.651Z,99257.55
2019-01-29T20:10:40.019Z,99254.80
2019-01-29T20:13:11.271Z,99257.77
2019-01-29T20:15:40.716Z,99256.25
2019-01-29T20:18:10.402Z,99253.25
2019-01-29T20:20:41.551Z,99249.33
2019-01-29T20:23:11.077Z,99244.22
2019-01-29T20:25:40.437Z,99236.39
2019-01-29T20:28:10.482Z,99240.45
2019-01-29T20:30:40.635Z,99232.33
2019-01-29T20:33:10.941Z,99225.70
2019-01-29T20:35:40.589Z,99228.30
2019-01-29T20:38:10.045Z,99229.37
2019-01-29T20:40:39.610Z,99219.43
2019-01-29T20:43:09.185Z,99221.54
2019-01-29T20:45:38.578Z,99214.59
2019-01-29T20:48:07.860Z,99216.85
2019-01-29T20:50:37.663Z,99208.07
2019-01-29T20:53:06.932Z,99209.73
2019-01-29T20:55:36.318Z,99207.02
2019-01-29T20:58:06.100Z,99204.04
2019-01-29T21:00:40.813Z,99197.16
2019-01-29T21:03:10.088Z,99196.33
2019-01-29T21:05:39.469Z,99188.86
2019-01-29T21:08:08.827Z,99186.48
2019-01-29T21:10:38.186Z,99182.81
2019-01-29T21:13:07.540Z,99177.83
2019-01-29T21:15:38.555Z,99173.41
2019-01-29T21:18:07.942Z,99172.13
2019-01-29T21:20:37.247Z,99172.73
2019-01-29T21:23:06.697Z,99165.36
2019-01-29T21:25:36.079Z,99153.38
2019-01-29T21:28:05.853Z,99152.55
2019-01-29T21:30:40.493Z,99142.00
2019-01-29T21:33:09.804Z,99144.36
2019-01-29T21:35:39.216Z,99133.34
2019-01-29T21:38:08.927Z,99136.42
2019-01-29T21:40:38.309Z,99129.89
2019-01-29T21:43:07.658Z,99125.97
2019-01-29T21:45:37.047Z,99119.70
2019-01-29T21:48:06.944Z,99110.20
2019-01-29T21:50:36.889Z,99115.05
2019-01-29T21:53:06.519Z,99107.70
2019-01-29T21:55:35.819Z,99100.82
2019-01-29T21:58:06.357Z,99094.19
2019-01-29T22:00:38.742Z,99097.39
2019-01-29T22:03:08.605Z,99089.91
2019-01-29T22:05:38.254Z,99091.70
2019-01-29T22:08:08.492Z,99090.28
2019-01-29T22:10:38.255Z,99083.26
2019-01-29T22:13:08.712Z,99080.77
2019-01-29T22:15:38.071Z,99081.97
2019-01-29T22:18:08.435Z,99076.03
2019-01-29T22:20:37.781Z,99070.96
2019-01-29T22:23:07.823Z,99070.13
2019-01-29T22:25:37.338Z,99062.16
2019-01-29T22:28:07.588Z,99065.37
2019-01-29T22:30:40.025Z,99057.41
2019-01-29T22:33:09.407Z,99046.84
2019-01-29T22:35:38.792Z,99045.06
2019-01-29T22:38:08.177Z,99043.68
2019-01-29T22:40:37.528Z,99035.27
2019-01-29T22:43:07.090Z,99030.86
2019-01-29T22:45:36.392Z,99030.27
2019-01-29T22:48:06.746Z,99022.44
2019-01-29T22:50:40.946Z,99011.98
2019-01-29T22:53:10.688Z,99017.81
2019-01-29T22:55:40.093Z,99016.52
2019-01-29T22:58:10.019Z,99011.55
2019-01-29T23:00:58.862Z,99006.58
2019-01-29T23:03:34.270Z,99004.91
2019-01-29T23:06:06.609Z,98998.83
2019-01-29T23:08:35.926Z,98995.89
2019-01-29T23:11:06.066Z,98993.48
2019-01-29T23:13:35.642Z,98989.45
2019-01-29T23:16:06.066Z,98986.63
2019-01-29T23:18:35.379Z,98981.05
2019-01-29T23:21:04.770Z,98971.45
2019-01-29T23:23:34.063Z,98968.59
2019-01-29T23:26:03.591Z,98962.31
2019-01-29T23:28:32.894Z,98962.00
2019-01-29T23:31:02.217Z,98954.04
2019-01-29T23:33:31.496Z,98952.39
2019-01-29T23:36:00.807Z,98947.73
2019-01-29T23:38:30.469Z,98934.96
2019-01-29T23:40:59.780Z,98932.55
2019-01-29T23:43:29.295Z,98928.44
2019-01-29T23:45:58.606Z,98928.66
2019-01-29T23:48:27.929Z,98920.86
2019-01-29T23:50:57.434Z,98914.92
2019-01-29T23:53:26.751Z,98915.03
2019-01-29T23:55:56.128Z,98904.03
2019-01-29T23:58:25.434Z,98909.97
